| time (UTC) | temp C | wind direction | speed KPH | gust KPH | rain 1hr cm | rain 24hr cm | rain mn cm | humidity % | barometer mb |
| 20260906125705 | 23 | 59 | 3.2 | 4.8 | 0.00 | 0.08 | 0.00 | 94 | 1013.2 |
| 20260906125655 | 23 | 296 | 0.0 | 1.6 | 0.00 | 0.00 | 0.00 | 99 | 1012.8 |
| 20260906125204 | 23 | 18 | 1.6 | 3.2 | 0.00 | 0.08 | 0.00 | 95 | 1013.2 |
| 20260906125154 | 23 | 77 | 0.0 | 4.8 | 0.00 | 0.00 | 0.00 | 99 | 1012.8 |
| 20260906124649 | 22 | 297 | 0.0 | 3.2 | 0.00 | 0.00 | 0.00 | 99 | 1013.0 |
| 20260906124145 | 22 | 342 | 0.0 | 4.8 | 0.00 | 0.00 | 0.00 | 99 | 1012.8 |
| 20260906123704 | 23 | 254 | 0.0 | 0.0 | 0.00 | 0.08 | 0.00 | 95 | 1013.2 |
| 20260906123644 | 22 | 256 | 0.0 | 3.2 | 0.00 | 0.00 | 0.00 | 99 | 1012.7 |
| 20260906123139 | 22 | 352 | 0.0 | 0.0 | 0.00 | 0.00 | 0.00 | 99 | 1012.8 |
| 20260906122638 | 22 | 283 | 0.0 | 0.0 | 0.00 | 0.00 | 0.00 | 99 | 1012.8 |
| 20260906122204 | 22 | 0 | 0.0 | 0.0 | 0.00 | 0.08 | 0.00 | 94 | 1013.1 |
| 20260906122134 | 22 | 268 | 0.0 | 1.6 | 0.00 | 0.00 | 0.00 | 99 | 1012.8 |
| 20260906121704 | 22 | 0 | 0.0 | 0.0 | 0.00 | 0.08 | 0.00 | 94 | 1013.1 |
| 20260906121630 | 22 | 339 | 0.0 | 1.6 | 0.00 | 0.00 | 0.00 | 99 | 1012.8 |
| 20260906121126 | 22 | 172 | 0.0 | 1.6 | 0.00 | 0.00 | 0.00 | 99 | 1013.0 |
| 20260906120621 | 22 | 309 | 0.0 | 0.0 | 0.00 | 0.00 | 0.00 | 99 | 1012.8 |
| 20260906120204 | 22 | 0 | 0.0 | 0.0 | 0.00 | 0.08 | 0.00 | 94 | 1013.0 |
| 20260906120118 | 22 | 284 | 0.0 | 1.6 | 0.00 | 0.00 | 0.00 | 99 | 1012.8 |
| 20260906115704 | 22 | 0 | 0.0 | 0.0 | 0.00 | 0.08 | 0.00 | 94 | 1013.0 |
| 20260906115613 | 22 | 326 | 0.0 | 1.6 | 0.00 | 0.00 | 0.00 | 99 | 1012.7 |
| 20260906115204 | 22 | 0 | 0.0 | 0.0 | 0.00 | 0.08 | 0.00 | 94 | 1012.9 |
| 20260906115108 | 22 | 327 | 1.6 | 3.2 | 0.00 | 0.00 | 0.00 | 99 | 1012.9 |
| 20260906114602 | 22 | 0 | 0.0 | 1.6 | 0.00 | 0.00 | 0.00 | 99 | 1012.5 |
| 20260906114057 | 22 | 124 | 0.0 | 1.6 | 0.00 | 0.00 | 0.00 | 99 | 1012.4 |
| 20260906113705 | 22 | 5 | 0.0 | 0.0 | 0.00 | 0.08 | 0.00 | 94 | 1012.7 |
| 20260906113556 | 22 | 183 | 0.0 | 1.6 | 0.00 | 0.00 | 0.00 | 99 | 1012.5 |
| 20260906113051 | 22 | 304 | 0.0 | 0.0 | 0.00 | 0.00 | 0.00 | 99 | 1012.4 |
| 20260906112705 | 22 | 22 | 0.0 | 0.0 | 0.00 | 0.08 | 0.00 | 94 | 1012.7 |
| 20260906112546 | 22 | 341 | 3.2 | 3.2 | 0.00 | 0.00 | 0.00 | 99 | 1012.6 |
| 20260906112043 | 22 | 289 | 0.0 | 1.6 | 0.00 | 0.00 | 0.00 | 99 | 1012.4 |
| 20260906111704 | 22 | 40 | 0.0 | 0.0 | 0.00 | 0.08 | 0.00 | 94 | 1012.5 |
| 20260906111542 | 22 | 297 | 0.0 | 1.6 | 0.00 | 0.00 | 0.00 | 99 | 1012.2 |
| 20260906111038 | 22 | 67 | 0.0 | 1.6 | 0.00 | 0.00 | 0.00 | 99 | 1012.3 |
| 20260906110537 | 22 | 329 | 0.0 | 1.6 | 0.00 | 0.00 | 0.00 | 99 | 1012.0 |
| 20260906110204 | 22 | 40 | 0.0 | 0.0 | 0.00 | 0.08 | 0.00 | 94 | 1012.0 |
| 20260906110037 | 22 | 296 | 0.0 | 3.2 | 0.00 | 0.00 | 0.00 | 99 | 1011.8 |
| 20260906105531 | 22 | 334 | 3.2 | 3.2 | 0.00 | 0.00 | 0.00 | 99 | 1012.0 |
| 20260906105028 | 22 | 248 | 0.0 | 3.2 | 0.00 | 0.00 | 0.00 | 99 | 1011.9 |
| 20260906104526 | 22 | 297 | 0.0 | 3.2 | 0.00 | 0.00 | 0.00 | 99 | 1011.9 |
| 20260906104021 | 22 | 269 | 0.0 | 1.6 | 0.00 | 0.00 | 0.00 | 99 | 1011.8 |
| 20260906103704 | 22 | 40 | 0.0 | 1.6 | 0.00 | 0.08 | 0.00 | 94 | 1011.9 |
| 20260906103519 | 22 | 32 | 0.0 | 1.6 | 0.00 | 0.00 | 0.00 | 99 | 1011.9 |
| 20260906103204 | 22 | 40 | 0.0 | 1.6 | 0.00 | 0.08 | 0.00 | 94 | 1011.9 |
| 20260906103015 | 22 | 309 | 0.0 | 1.6 | 0.00 | 0.00 | 0.00 | 99 | 1011.7 |
| 20260906102514 | 22 | 286 | 0.0 | 1.6 | 0.00 | 0.00 | 0.00 | 99 | 1011.7 |
| 20260906102204 | 22 | 40 | 0.0 | 0.0 | 0.00 | 0.08 | 0.00 | 94 | 1011.9 |
| 20260906102009 | 22 | 157 | 0.0 | 1.6 | 0.00 | 0.00 | 0.00 | 99 | 1011.7 |
| 20260906101703 | 22 | 40 | 0.0 | 0.0 | 0.00 | 0.08 | 0.00 | 94 | 1011.8 |
| 20260906101504 | 22 | 209 | 0.0 | 0.0 | 0.00 | 0.00 | 0.00 | 99 | 1011.7 |
| 20260906101204 | 22 | 40 | 0.0 | 0.0 | 0.00 | 0.08 | 0.00 | 94 | 1011.7 |
| 20260906100958 | 22 | 322 | 0.0 | 1.6 | 0.00 | 0.00 | 0.00 | 99 | 1011.6 |
| 20260906100704 | 22 | 40 | 0.0 | 1.6 | 0.00 | 0.08 | 0.00 | 94 | 1011.6 |
| 20260906100453 | 22 | 297 | 0.0 | 3.2 | 0.00 | 0.00 | 0.00 | 99 | 1011.6 |
| 20260906100204 | 22 | 40 | 0.0 | 1.6 | 0.00 | 0.08 | 0.00 | 94 | 1011.5 |
| 20260906095948 | 22 | 329 | 0.0 | 1.6 | 0.00 | 0.00 | 0.00 | 99 | 1011.5 |
| 20260906095444 | 22 | 351 | 0.0 | 3.2 | 0.00 | 0.00 | 0.00 | 99 | 1011.4 |
| 20260906094938 | 22 | 309 | 0.0 | 3.2 | 0.00 | 0.00 | 0.00 | 99 | 1011.3 |
| 20260906094704 | 22 | 40 | 0.0 | 1.6 | 0.00 | 0.08 | 0.00 | 94 | 1011.3 |
| 20260906094432 | 22 | 255 | 0.0 | 1.6 | 0.00 | 0.00 | 0.00 | 99 | 1011.2 |
| 20260906094204 | 22 | 63 | 1.6 | 4.8 | 0.00 | 0.08 | 0.00 | 94 | 1011.3 |
| 20260906093928 | 22 | 299 | 0.0 | 1.6 | 0.00 | 0.00 | 0.00 | 99 | 1011.3 |
| 20260906093704 | 22 | 50 | 0.0 | 1.6 | 0.00 | 0.08 | 0.00 | 94 | 1011.1 |
| 20260906093425 | 22 | 50 | 0.0 | 1.6 | 0.00 | 0.00 | 0.00 | 99 | 1011.2 |
| 20260906092924 | 22 | 269 | 0.0 | 1.6 | 0.00 | 0.00 | 0.00 | 99 | 1011.1 |
| 20260906092704 | 22 | 28 | 0.0 | 0.0 | 0.00 | 0.08 | 0.00 | 94 | 1011.1 |
| 20260906092419 | 22 | 322 | 0.0 | 3.2 | 0.00 | 0.00 | 0.00 | 99 | 1011.3 |
| 20260906091914 | 22 | 297 | 0.0 | 3.2 | 0.00 | 0.00 | 0.00 | 99 | 1011.1 |
| 20260906091705 | 22 | 28 | 0.0 | 0.0 | 0.00 | 0.08 | 0.00 | 94 | 1011.0 |
| 20260906091410 | 22 | 117 | 0.0 | 0.0 | 0.00 | 0.00 | 0.00 | 99 | 1010.8 |
| 20260906090907 | 22 | 117 | 0.0 | 0.0 | 0.00 | 0.00 | 0.00 | 99 | 1010.8 |
| 20260906090704 | 22 | 28 | 0.0 | 0.0 | 0.00 | 0.08 | 0.00 | 93 | 1011.0 |
| 20260906090406 | 22 | 187 | 0.0 | 1.6 | 0.00 | 0.00 | 0.00 | 99 | 1010.9 |
| 20260906085900 | 22 | 310 | 0.0 | 0.0 | 0.00 | 0.00 | 0.00 | 99 | 1011.0 |
| 20260906085354 | 22 | 310 | 0.0 | 0.0 | 0.00 | 0.00 | 0.00 | 99 | 1011.0 |
| 20260906085204 | 22 | 28 | 0.0 | 0.0 | 0.00 | 0.08 | 0.00 | 93 | 1011.0 |
| 20260906084849 | 22 | 323 | 0.0 | 1.6 | 0.00 | 0.00 | 0.00 | 99 | 1010.9 |
| 20260906084348 | 22 | 62 | 0.0 | 0.0 | 0.00 | 0.00 | 0.00 | 99 | 1010.8 |
| 20260906083843 | 22 | 309 | 0.0 | 0.0 | 0.00 | 0.00 | 0.00 | 99 | 1010.7 |
| 20260906083338 | 22 | 309 | 0.0 | 0.0 | 0.00 | 0.00 | 0.00 | 99 | 1010.8 |
| 20260906082832 | 22 | 309 | 0.0 | 0.0 | 0.00 | 0.00 | 0.00 | 99 | 1010.7 |
| 20260906082703 | 22 | 28 | 0.0 | 0.0 | 0.00 | 0.08 | 0.00 | 93 | 1010.8 |
| 20260906082327 | 22 | 309 | 0.0 | 0.0 | 0.00 | 0.00 | 0.00 | 99 | 1010.9 |
| 20260906081824 | 21 | 19 | 0.0 | 0.0 | 0.00 | 0.00 | 0.00 | 99 | 1010.9 |
| 20260906081319 | 21 | 19 | 0.0 | 1.6 | 0.00 | 0.00 | 0.00 | 99 | 1010.7 |
| 20260906081204 | 22 | 28 | 0.0 | 0.0 | 0.00 | 0.08 | 0.00 | 92 | 1010.6 |
| 20260906080815 | 21 | 25 | 0.0 | 0.0 | 0.00 | 0.00 | 0.00 | 99 | 1010.6 |
| 20260906080704 | 22 | 28 | 0.0 | 0.0 | 0.00 | 0.08 | 0.00 | 92 | 1010.5 |
| 20260906080311 | 21 | 37 | 0.0 | 1.6 | 0.00 | 0.00 | 0.00 | 99 | 1010.3 |
| 20260906080204 | 22 | 28 | 0.0 | 0.0 | 0.00 | 0.08 | 0.00 | 92 | 1010.4 |
| 20260906075811 | 21 | 66 | 0.0 | 0.0 | 0.00 | 0.00 | 0.00 | 99 | 1010.3 |
| 20260906075310 | 21 | 7 | 0.0 | 0.0 | 0.00 | 0.00 | 0.00 | 99 | 1010.5 |
| 20260906075204 | 22 | 28 | 0.0 | 0.0 | 0.00 | 0.08 | 0.00 | 92 | 1010.4 |
| 20260906074806 | 21 | 16 | 0.0 | 1.6 | 0.00 | 0.00 | 0.00 | 99 | 1010.3 |
| 20260906074704 | 22 | 28 | 0.0 | 0.0 | 0.00 | 0.08 | 0.00 | 92 | 1010.4 |
| 20260906074305 | 21 | 309 | 0.0 | 0.0 | 0.00 | 0.00 | 0.00 | 99 | 1010.3 |
| 20260906073804 | 21 | 309 | 0.0 | 0.0 | 0.00 | 0.00 | 0.00 | 99 | 1010.2 |
| 20260906073704 | 22 | 28 | 0.0 | 0.0 | 0.00 | 0.08 | 0.00 | 92 | 1010.2 |
| 20260906073259 | 21 | 309 | 0.0 | 0.0 | 0.00 | 0.00 | 0.00 | 99 | 1010.2 |
| 20260906073204 | 22 | 28 | 0.0 | 0.0 | 0.00 | 0.08 | 0.00 | 92 | 1010.3 |
| 20260906072755 | 21 | 309 | 0.0 | 0.0 | 0.00 | 0.00 | 0.00 | 99 | 1010.3 |
| 20260906072251 | 22 | 62 | 0.0 | 0.0 | 0.00 | 0.00 | 0.00 | 99 | 1010.2 |
| 20260906072204 | 22 | 28 | 0.0 | 0.0 | 0.00 | 0.08 | 0.00 | 92 | 1010.4 |
| 20260906071747 | 22 | 351 | 0.0 | 0.0 | 0.00 | 0.00 | 0.00 | 99 | 1010.3 |
| 20260906071704 | 22 | 28 | 0.0 | 0.0 | 0.00 | 0.08 | 0.00 | 92 | 1010.3 |
| 20260906071247 | 22 | 351 | 0.0 | 0.0 | 0.00 | 0.00 | 0.00 | 99 | 1010.2 |
| 20260906070744 | 22 | 351 | 0.0 | 0.0 | 0.00 | 0.00 | 0.00 | 99 | 1010.3 |
| 20260906070239 | 22 | 351 | 0.0 | 1.6 | 0.00 | 0.00 | 0.00 | 99 | 1010.2 |
| 20260906065738 | 22 | 89 | 0.0 | 1.6 | 0.00 | 0.00 | 0.00 | 99 | 1010.2 |
| 20260906065234 | 22 | 333 | 0.0 | 1.6 | 0.00 | 0.00 | 0.00 | 99 | 1010.1 |
| 20260906065204 | 22 | 28 | 0.0 | 0.0 | 0.00 | 0.08 | 0.00 | 92 | 1010.3 |
| 20260906064729 | 22 | 0 | 0.0 | 0.0 | 0.00 | 0.00 | 0.00 | 99 | 1010.4 |
| 20260906064704 | 22 | 28 | 0.0 | 0.0 | 0.00 | 0.08 | 0.00 | 92 | 1010.3 |
| 20260906064225 | 22 | 3 | 0.0 | 1.6 | 0.00 | 0.00 | 0.00 | 99 | 1010.3 |
| 20260906063720 | 22 | 321 | 0.0 | 3.2 | 0.00 | 0.00 | 0.00 | 99 | 1010.4 |
| 20260906063704 | 22 | 28 | 0.0 | 0.0 | 0.00 | 0.08 | 0.00 | 92 | 1010.5 |
| 20260906063215 | 22 | 351 | 0.0 | 1.6 | 0.00 | 0.00 | 0.00 | 99 | 1010.6 |
| 20260906063204 | 22 | 28 | 0.0 | 0.0 | 0.00 | 0.08 | 0.00 | 92 | 1010.5 |
| 20260906062710 | 22 | 343 | 0.0 | 1.6 | 0.00 | 0.00 | 0.00 | 99 | 1010.6 |
| 20260906062209 | 22 | 230 | 0.0 | 1.6 | 0.00 | 0.00 | 0.00 | 99 | 1010.6 |
| 20260906061703 | 22 | 28 | 0.0 | 0.0 | 0.00 | 0.08 | 0.00 | 92 | 1010.6 |
| 20260906061700 | 22 | 339 | 0.0 | 1.6 | 0.00 | 0.00 | 0.00 | 99 | 1010.5 |
| 20260906061204 | 22 | 28 | 0.0 | 0.0 | 0.00 | 0.08 | 0.00 | 92 | 1010.6 |
| 20260906061155 | 22 | 326 | 0.0 | 0.0 | 0.00 | 0.00 | 0.00 | 99 | 1010.4 |
| 20260906060704 | 22 | 28 | 0.0 | 0.0 | 0.00 | 0.08 | 0.00 | 92 | 1010.7 |
| 20260906060651 | 22 | 333 | 0.0 | 0.0 | 0.00 | 0.00 | 0.00 | 99 | 1010.8 |
| 20260906060203 | 22 | 28 | 0.0 | 0.0 | 0.00 | 0.08 | 0.00 | 92 | 1010.8 |
| 20260906060148 | 22 | 242 | 0.0 | 1.6 | 0.00 | 0.00 | 0.00 | 99 | 1010.6 |
| 20260906055643 | 22 | 172 | 0.0 | 1.6 | 0.00 | 0.00 | 0.00 | 99 | 1010.5 |
| 20260906055204 | 22 | 28 | 0.0 | 0.0 | 0.00 | 0.08 | 0.00 | 92 | 1010.9 |
| 20260906055138 | 22 | 310 | 0.0 | 1.6 | 0.00 | 0.00 | 0.00 | 99 | 1010.8 |
| 20260906054634 | 22 | 286 | 0.0 | 1.6 | 0.00 | 0.00 | 0.00 | 99 | 1010.9 |
| 20260906054129 | 22 | 311 | 0.0 | 1.6 | 0.00 | 0.00 | 0.00 | 99 | 1011.1 |
| 20260906053625 | 22 | 331 | 0.0 | 1.6 | 0.00 | 0.00 | 0.00 | 99 | 1011.0 |
| 20260906053204 | 22 | 28 | 0.0 | 0.0 | 0.00 | 0.08 | 0.00 | 92 | 1011.1 |
| 20260906053120 | 22 | 269 | 0.0 | 0.0 | 0.00 | 0.00 | 0.00 | 99 | 1011.0 |
| 20260906052703 | 22 | 28 | 0.0 | 0.0 | 0.00 | 0.08 | 0.00 | 92 | 1011.0 |
| 20260906052616 | 22 | 314 | 0.0 | 3.2 | 0.00 | 0.00 | 0.00 | 99 | 1011.1 |
| 20260906052113 | 22 | 50 | 0.0 | 3.2 | 0.00 | 0.00 | 0.00 | 99 | 1011.1 |
| 20260906051608 | 22 | 212 | 0.0 | 0.0 | 0.00 | 0.00 | 0.00 | 99 | 1011.1 |
| 20260906051103 | 22 | 212 | 0.0 | 0.0 | 0.00 | 0.00 | 0.00 | 99 | 1011.2 |
| 20260906050704 | 23 | 28 | 0.0 | 0.0 | 0.00 | 0.08 | 0.00 | 92 | 1011.4 |
| 20260906050558 | 22 | 261 | 0.0 | 1.6 | 0.00 | 0.00 | 0.00 | 99 | 1011.3 |
| 20260906050054 | 22 | 37 | 0.0 | 3.2 | 0.00 | 0.00 | 0.00 | 99 | 1011.4 |
| 20260906045703 | 23 | 28 | 0.0 | 0.0 | 0.00 | 0.08 | 0.08 | 92 | 1011.2 |
| 20260906045551 | 22 | 205 | 0.0 | 1.6 | 0.00 | 0.00 | 0.00 | 99 | 1011.1 |
| 20260906045048 | 22 | 205 | 0.0 | 1.6 | 0.00 | 0.00 | 0.00 | 99 | 1011.1 |
| 20260906044543 | 22 | 25 | 0.0 | 3.2 | 0.00 | 0.00 | 0.00 | 99 | 1011.4 |
| 20260906044038 | 22 | 75 | 0.0 | 1.6 | 0.00 | 0.00 | 0.00 | 99 | 1011.6 |
| 20260906043534 | 22 | 50 | 0.0 | 0.0 | 0.00 | 0.00 | 0.00 | 99 | 1011.5 |
| 20260906043205 | 23 | 28 | 0.0 | 0.0 | 0.00 | 0.08 | 0.08 | 92 | 1011.4 |
| 20260906043030 | 22 | 36 | 0.0 | 3.2 | 0.00 | 0.00 | 0.00 | 99 | 1011.7 |
| 20260906042528 | 22 | 315 | 0.0 | 3.2 | 0.00 | 0.00 | 0.00 | 99 | 1011.6 |
| 20260906042023 | 22 | 353 | 0.0 | 3.2 | 0.00 | 0.00 | 0.00 | 99 | 1011.5 |
| 20260906041705 | 23 | 28 | 0.0 | 0.0 | 0.00 | 0.08 | 0.08 | 92 | 1011.5 |
| 20260906041520 | 22 | 37 | 0.0 | 1.6 | 0.00 | 0.00 | 0.00 | 99 | 1011.6 |
| 20260906041019 | 22 | 309 | 0.0 | 0.0 | 0.00 | 0.00 | 0.00 | 99 | 1011.5 |
| 20260906040705 | 23 | 28 | 0.0 | 0.0 | 0.00 | 0.08 | 0.08 | 92 | 1011.6 |
| 20260906040514 | 22 | 309 | 0.0 | 1.6 | 0.00 | 0.00 | 0.00 | 99 | 1011.5 |
| 20260906040010 | 22 | 13 | 0.0 | 1.6 | 0.00 | 0.00 | 0.00 | 99 | 1011.7 |
| 20260906035705 | 23 | 28 | 0.0 | 0.0 | 0.00 | 0.08 | 0.08 | 92 | 1011.6 |
| 20260906035459 | 22 | 25 | 0.0 | 1.6 | 0.00 | 0.00 | 0.00 | 99 | 1011.6 |
| 20260906034954 | 22 | 235 | 0.0 | 3.2 | 0.00 | 0.00 | 0.00 | 99 | 1011.7 |
| 20260906034705 | 23 | 28 | 0.0 | 0.0 | 0.00 | 0.08 | 0.08 | 92 | 1011.7 |
| 20260906034448 | 22 | 129 | 0.0 | 0.0 | 0.00 | 0.00 | 0.00 | 99 | 1011.7 |
| 20260906034205 | 23 | 28 | 0.0 | 0.0 | 0.00 | 0.08 | 0.08 | 92 | 1011.7 |
| 20260906033939 | 22 | 151 | 0.0 | 1.6 | 0.00 | 0.00 | 0.00 | 99 | 1011.7 |
| 20260906033438 | 22 | 255 | 0.0 | 1.6 | 0.00 | 0.00 | 0.00 | 99 | 1011.7 |
| 20260906032934 | 22 | 145 | 0.0 | 0.0 | 0.00 | 0.00 | 0.00 | 99 | 1011.8 |
| 20260906032430 | 22 | 284 | 0.0 | 0.0 | 0.00 | 0.00 | 0.00 | 99 | 1011.6 |
| 20260906031924 | 22 | 284 | 0.0 | 0.0 | 0.00 | 0.00 | 0.00 | 99 | 1011.7 |
| 20260906031705 | 23 | 28 | 0.0 | 0.0 | 0.00 | 0.08 | 0.08 | 92 | 1011.6 |
| 20260906031420 | 22 | 284 | 0.0 | 1.6 | 0.00 | 0.00 | 0.00 | 99 | 1011.6 |
| 20260906031205 | 23 | 28 | 0.0 | 1.6 | 0.00 | 0.08 | 0.08 | 92 | 1011.6 |
| 20260906030916 | 23 | 255 | 0.0 | 0.0 | 0.00 | 0.00 | 0.00 | 99 | 1011.3 |
| 20260906030410 | 23 | 255 | 0.0 | 0.0 | 0.00 | 0.00 | 0.00 | 99 | 1011.5 |
| 20260906030205 | 23 | 28 | 0.0 | 1.6 | 0.00 | 0.08 | 0.08 | 92 | 1011.5 |
| 20260906025904 | 23 | 255 | 0.0 | 0.0 | 0.00 | 0.00 | 0.00 | 99 | 1011.5 |
| 20260906025359 | 23 | 255 | 0.0 | 0.0 | 0.00 | 0.00 | 0.00 | 99 | 1011.4 |
| 20260906024858 | 23 | 255 | 0.0 | 0.0 | 0.00 | 0.00 | 0.00 | 99 | 1011.4 |
| 20260906024705 | 23 | 28 | 0.0 | 1.6 | 0.00 | 0.08 | 0.08 | 91 | 1011.6 |
| 20260906024357 | 23 | 255 | 0.0 | 0.0 | 0.00 | 0.00 | 0.00 | 99 | 1011.5 |
| 20260906024205 | 23 | 28 | 1.6 | 1.6 | 0.00 | 0.08 | 0.08 | 91 | 1011.5 |
| 20260906023852 | 23 | 255 | 0.0 | 0.0 | 0.00 | 0.00 | 0.00 | 99 | 1011.6 |
| 20260906023705 | 23 | 28 | 0.0 | 0.0 | 0.00 | 0.08 | 0.08 | 91 | 1011.6 |
| 20260906023348 | 23 | 255 | 0.0 | 0.0 | 0.00 | 0.00 | 0.00 | 99 | 1011.5 |
| 20260906023204 | 23 | 28 | 0.0 | 0.0 | 0.00 | 0.08 | 0.08 | 91 | 1011.7 |
| 20260906022843 | 23 | 282 | 0.0 | 0.0 | 0.00 | 0.00 | 0.00 | 99 | 1011.6 |
| 20260906022705 | 23 | 28 | 0.0 | 0.0 | 0.00 | 0.08 | 0.08 | 91 | 1011.7 |
| 20260906022338 | 23 | 282 | 0.0 | 0.0 | 0.00 | 0.00 | 0.00 | 99 | 1011.5 |
| 20260906022204 | 23 | 28 | 0.0 | 0.0 | 0.00 | 0.08 | 0.08 | 91 | 1011.5 |
| 20260906021834 | 23 | 282 | 0.0 | 0.0 | 0.00 | 0.00 | 0.00 | 99 | 1011.4 |
| 20260906021333 | 23 | 314 | 0.0 | 1.6 | 0.00 | 0.00 | 0.00 | 99 | 1011.4 |
| 20260906021204 | 23 | 28 | 0.0 | 0.0 | 0.00 | 0.08 | 0.08 | 91 | 1011.2 |
| 20260906020828 | 23 | 37 | 0.0 | 0.0 | 0.00 | 0.00 | 0.00 | 99 | 1011.1 |
| 20260906020705 | 23 | 28 | 0.0 | 0.0 | 0.00 | 0.08 | 0.08 | 91 | 1011.1 |
| 20260906020327 | 23 | 37 | 0.0 | 0.0 | 0.00 | 0.00 | 0.00 | 99 | 1011.2 |
| 20260906015822 | 23 | 37 | 0.0 | 1.6 | 0.00 | 0.00 | 0.00 | 99 | 1011.3 |
| 20260906015705 | 23 | 28 | 0.0 | 0.0 | 0.00 | 0.08 | 0.08 | 91 | 1011.1 |
| 20260906015321 | 23 | 50 | 0.0 | 0.0 | 0.00 | 0.00 | 0.00 | 99 | 1011.2 |
| 20260906015205 | 23 | 28 | 0.0 | 0.0 | 0.00 | 0.08 | 0.08 | 91 | 1011.1 |
| 20260906014820 | 23 | 50 | 0.0 | 0.0 | 0.00 | 0.00 | 0.00 | 99 | 1011.4 |
| 20260906014316 | 23 | 50 | 0.0 | 0.0 | 0.00 | 0.00 | 0.00 | 99 | 1011.2 |
| 20260906013812 | 23 | 50 | 0.0 | 0.0 | 0.00 | 0.00 | 0.00 | 99 | 1011.4 |
| 20260906013705 | 24 | 28 | 0.0 | 0.0 | 0.00 | 0.08 | 0.08 | 91 | 1011.1 |
| 20260906013307 | 23 | 50 | 0.0 | 0.0 | 0.00 | 0.00 | 0.00 | 99 | 1010.9 |
| 20260906012803 | 23 | 50 | 0.0 | 0.0 | 0.00 | 0.00 | 0.00 | 99 | 1011.2 |
| 20260906012704 | 24 | 28 | 0.0 | 0.0 | 0.00 | 0.08 | 0.08 | 90 | 1011.2 |
| 20260906012257 | 23 | 50 | 0.0 | 1.6 | 0.00 | 0.00 | 0.00 | 99 | 1011.1 |
| 20260906012205 | 24 | 28 | 0.0 | 0.0 | 0.00 | 0.08 | 0.08 | 90 | 1011.1 |
| 20260906011753 | 23 | 269 | 0.0 | 0.0 | 0.00 | 0.00 | 0.00 | 99 | 1011.1 |
| 20260906011704 | 24 | 28 | 0.0 | 0.0 | 0.00 | 0.08 | 0.08 | 90 | 1011.1 |
| 20260906011252 | 23 | 269 | 0.0 | 0.0 | 0.00 | 0.00 | 0.00 | 99 | 1010.8 |
| 20260906011204 | 24 | 28 | 0.0 | 0.0 | 0.00 | 0.08 | 0.08 | 90 | 1011.1 |
| 20260906010748 | 23 | 269 | 0.0 | 0.0 | 0.00 | 0.00 | 0.00 | 99 | 1011.1 |
| 20260906010244 | 23 | 269 | 0.0 | 0.0 | 0.00 | 0.00 | 0.00 | 99 | 1011.1 |
| 20260906005739 | 23 | 269 | 0.0 | 0.0 | 0.00 | 0.00 | 0.00 | 99 | 1011.1 |
| 20260906005237 | 23 | 269 | 0.0 | 0.0 | 0.00 | 0.00 | 0.00 | 99 | 1011.1 |
| 20260906004737 | 23 | 269 | 0.0 | 0.0 | 0.00 | 0.00 | 0.00 | 99 | 1010.9 |
| 20260906004227 | 23 | 37 | 0.0 | 0.0 | 0.00 | 0.00 | 0.00 | 99 | 1011.2 |
| 20260906003722 | 23 | 37 | 0.0 | 0.0 | 0.00 | 0.00 | 0.00 | 99 | 1011.0 |
| 20260906003218 | 23 | 37 | 0.0 | 0.0 | 0.00 | 0.00 | 0.00 | 99 | 1011.1 |
| 20260906003205 | 24 | 28 | 0.0 | 1.6 | 0.00 | 0.08 | 0.08 | 89 | 1010.9 |
| 20260906002717 | 23 | 62 | 0.0 | 1.6 | 0.00 | 0.00 | 0.00 | 99 | 1010.9 |
| 20260906002212 | 23 | 37 | 0.0 | 0.0 | 0.00 | 0.00 | 0.00 | 99 | 1010.8 |
| 20260906001708 | 23 | 44 | 0.0 | 1.6 | 0.00 | 0.00 | 0.00 | 99 | 1010.8 |
| 20260906001705 | 25 | 28 | 0.0 | 1.6 | 0.00 | 0.08 | 0.08 | 89 | 1010.8 |
| 20260906001208 | 24 | 297 | 0.0 | 0.0 | 0.00 | 0.00 | 0.00 | 99 | 1010.5 |
| 20260906000705 | 25 | 28 | 0.0 | 1.6 | 0.00 | 0.08 | 0.08 | 89 | 1010.7 |
| 20260906000703 | 24 | 249 | 1.6 | 3.2 | 0.00 | 0.00 | 0.00 | 99 | 1010.5 |
| 20260906000158 | 24 | 50 | 0.0 | 1.6 | 0.00 | 0.00 | 0.00 | 99 | 1010.5 |
| 20260905235704 | 25 | 28 | 0.0 | 1.6 | 0.00 | 0.08 | 0.08 | 89 | 1010.5 |
| 20260905235657 | 24 | 269 | 0.0 | 3.2 | 0.00 | 0.00 | 0.00 | 99 | 1010.4 |
| 20260905235205 | 25 | 28 | 1.6 | 1.6 | 0.00 | 0.08 | 0.08 | 89 | 1010.5 |
| 20260905235152 | 24 | 322 | 0.0 | 0.0 | 0.00 | 0.00 | 0.00 | 99 | 1010.4 |
| 20260905234705 | 25 | 28 | 0.0 | 0.0 | 0.00 | 0.08 | 0.08 | 89 | 1010.5 |
| 20260905234647 | 24 | 292 | 0.0 | 3.2 | 0.00 | 0.00 | 0.00 | 99 | 1010.3 |
| 20260905234205 | 25 | 28 | 0.0 | 0.0 | 0.00 | 0.08 | 0.08 | 89 | 1010.3 |
| 20260905234143 | 24 | 25 | 0.0 | 3.2 | 0.00 | 0.00 | 0.00 | 99 | 1010.3 |
| 20260905233638 | 24 | 37 | 0.0 | 1.6 | 0.00 | 0.00 | 0.00 | 99 | 1010.4 |
| 20260905233204 | 25 | 28 | 0.0 | 1.6 | 0.00 | 0.08 | 0.08 | 88 | 1010.2 |
| 20260905233137 | 24 | 132 | 0.0 | 1.6 | 0.00 | 0.00 | 0.00 | 99 | 1010.2 |
| 20260905232633 | 24 | 322 | 0.0 | 0.0 | 0.00 | 0.00 | 0.00 | 99 | 1009.9 |
| 20260905232128 | 24 | 322 | 0.0 | 1.6 | 0.00 | 0.00 | 0.00 | 99 | 1009.8 |
| 20260905231705 | 25 | 28 | 0.0 | 1.6 | 0.00 | 0.08 | 0.08 | 89 | 1009.9 |
| 20260905231623 | 24 | 25 | 0.0 | 0.0 | 0.00 | 0.00 | 0.00 | 99 | 1009.9 |
| 20260905231119 | 24 | 25 | 0.0 | 0.0 | 0.00 | 0.00 | 0.00 | 99 | 1010.1 |
| 20260905230704 | 25 | 28 | 0.0 | 1.6 | 0.00 | 0.08 | 0.08 | 89 | 1009.7 |
| 20260905230614 | 24 | 7 | 0.0 | 1.6 | 0.00 | 0.00 | 0.00 | 99 | 1009.6 |
| 20260905230204 | 25 | 28 | 0.0 | 0.0 | 0.00 | 0.08 | 0.08 | 88 | 1009.5 |
| 20260905230112 | 24 | 333 | 0.0 | 0.0 | 0.00 | 0.00 | 0.00 | 99 | 1009.6 |
| 20260905225606 | 24 | 329 | 1.6 | 3.2 | 0.00 | 0.00 | 0.00 | 99 | 1009.2 |
| 20260905225204 | 25 | 28 | 0.0 | 0.0 | 0.00 | 0.08 | 0.08 | 88 | 1009.2 |
| 20260905225101 | 24 | 129 | 0.0 | 1.6 | 0.00 | 0.00 | 0.00 | 99 | 1009.2 |
| 20260905224704 | 25 | 28 | 0.0 | 0.0 | 0.00 | 0.08 | 0.08 | 87 | 1009.2 |
| 20260905224555 | 24 | 117 | 0.0 | 1.6 | 0.00 | 0.00 | 0.00 | 99 | 1008.9 |
| 20260905224054 | 24 | 309 | 0.0 | 0.0 | 0.00 | 0.00 | 0.00 | 98 | 1009.1 |
| 20260905223552 | 23 | 304 | 0.0 | 0.0 | 0.00 | 0.00 | 0.00 | 98 | 1009.2 |
| 20260905223048 | 23 | 304 | 0.0 | 0.0 | 0.00 | 0.00 | 0.00 | 98 | 1009.3 |
| 20260905222543 | 23 | 304 | 0.0 | 0.0 | 0.00 | 0.00 | 0.00 | 98 | 1009.5 |
| 20260905222205 | 25 | 28 | 0.0 | 1.6 | 0.03 | 0.08 | 0.08 | 86 | 1009.6 |
| 20260905222038 | 23 | 304 | 0.0 | 3.2 | 0.00 | 0.00 | 0.00 | 98 | 1009.4 |
| 20260905221535 | 23 | 326 | 0.0 | 0.0 | 0.00 | 0.00 | 0.00 | 98 | 1009.7 |
| 20260905221030 | 23 | 37 | 0.0 | 0.0 | 0.00 | 0.00 | 0.00 | 98 | 1010.1 |
| 20260905220705 | 25 | 28 | 0.0 | 0.0 | 0.03 | 0.08 | 0.08 | 84 | 1010.0 |
| 20260905220525 | 23 | 322 | 0.0 | 0.0 | 0.00 | 0.00 | 0.00 | 97 | 1010.2 |
| 20260905220021 | 23 | 322 | 0.0 | 1.6 | 0.00 | 0.00 | 0.00 | 97 | 1010.2 |
| 20260905215515 | 23 | 75 | 0.0 | 0.0 | 0.00 | 0.00 | 0.00 | 97 | 1009.9 |
| 20260905215204 | 25 | 29 | 0.0 | 0.0 | 0.08 | 0.08 | 0.08 | 82 | 1009.9 |
| 20260905215012 | 23 | 315 | 0.0 | 1.6 | 0.00 | 0.00 | 0.00 | 97 | 1010.0 |
| 20260905214704 | 26 | 219 | 0.0 | 0.0 | 0.08 | 0.08 | 0.08 | 82 | 1009.7 |
| 20260905214507 | 23 | 322 | 0.0 | 1.6 | 0.00 | 0.00 | 0.00 | 96 | 1009.8 |
| 20260905214205 | 26 | 219 | 0.0 | 0.0 | 0.08 | 0.08 | 0.08 | 81 | 1009.7 |
| 20260905214002 | 23 | 159 | 0.0 | 0.0 | 0.00 | 0.00 | 0.00 | 95 | 1009.8 |
| 20260905213458 | 23 | 159 | 0.0 | 3.2 | 0.00 | 0.00 | 0.00 | 95 | 1009.9 |
| 20260905213205 | 26 | 219 | 0.0 | 0.0 | 0.08 | 0.08 | 0.08 | 78 | 1009.8 |
| 20260905212958 | 23 | 242 | 0.0 | 1.6 | 0.00 | 0.00 | 0.00 | 95 | 1009.4 |
| 20260905212704 | 26 | 219 | 0.0 | 0.0 | 0.08 | 0.08 | 0.08 | 77 | 1009.5 |
| 20260905212453 | 24 | 297 | 0.0 | 3.2 | 0.00 | 0.00 | 0.00 | 94 | 1009.3 |
| 20260905212204 | 27 | 219 | 0.0 | 0.0 | 0.05 | 0.05 | 0.05 | 77 | 1009.5 |
| 20260905211952 | 25 | 297 | 0.0 | 0.0 | 0.00 | 0.00 | 0.00 | 92 | 1009.4 |
| 20260905211704 | 27 | 219 | 0.0 | 0.0 | 0.05 | 0.05 | 0.05 | 76 | 1009.6 |
| 20260905211448 | 25 | 164 | 0.0 | 0.0 | 0.00 | 0.00 | 0.00 | 91 | 1009.5 |
| 20260905210943 | 25 | 297 | 0.0 | 0.0 | 0.00 | 0.00 | 0.00 | 89 | 1009.6 |
| 20260905210439 | 25 | 297 | 0.0 | 0.0 | 0.00 | 0.00 | 0.00 | 86 | 1009.8 |
| 20260905205938 | 26 | 281 | 0.0 | 3.2 | 0.00 | 0.00 | 0.00 | 84 | 1009.9 |
| 20260905205704 | 28 | 53 | 0.0 | 0.0 | 0.00 | 0.00 | 0.00 | 69 | 1009.7 |
| 20260905205433 | 26 | 343 | 0.0 | 3.2 | 0.00 | 0.00 | 0.00 | 80 | 1010.0 |
| 20260905205204 | 28 | 53 | 0.0 | 1.6 | 0.00 | 0.00 | 0.00 | 68 | 1009.7 |
| 20260905204932 | 26 | 60 | 0.0 | 3.2 | 0.00 | 0.00 | 0.00 | 77 | 1009.8 |
| 20260905204704 | 29 | 53 | 0.0 | 3.2 | 0.00 | 0.00 | 0.00 | 65 | 1009.6 |
| 20260905204428 | 27 | 255 | 0.0 | 3.2 | 0.00 | 0.00 | 0.00 | 77 | 1009.6 |
| 20260905203927 | 27 | 255 | 0.0 | 0.0 | 0.00 | 0.00 | 0.00 | 76 | 1009.6 |
| 20260905203705 | 29 | 42 | 0.0 | 3.2 | 0.00 | 0.00 | 0.00 | 64 | 1009.6 |
| 20260905203422 | 27 | 351 | 0.0 | 1.6 | 0.00 | 0.00 | 0.00 | 76 | 1009.6 |
| 20260905203204 | 30 | 261 | 1.6 | 1.6 | 0.00 | 0.00 | 0.00 | 63 | 1009.7 |
| 20260905202918 | 27 | 342 | 1.6 | 1.6 | 0.00 | 0.00 | 0.00 | 76 | 1009.6 |
| 20260905202705 | 30 | 281 | 1.6 | 3.2 | 0.00 | 0.00 | 0.00 | 63 | 1009.4 |
| 20260905202413 | 27 | 54 | 1.6 | 3.2 | 0.00 | 0.00 | 0.00 | 74 | 1009.3 |
| 20260905201908 | 28 | 35 | 0.0 | 3.2 | 0.00 | 0.00 | 0.00 | 73 | 1009.6 |
| 20260905201403 | 28 | 141 | 0.0 | 4.8 | 0.00 | 0.00 | 0.00 | 72 | 1009.5 |
| 20260905201204 | 31 | 316 | 3.2 | 9.7 | 0.00 | 0.00 | 0.00 | 59 | 1009.8 |
| 20260905200857 | 28 | 169 | 0.0 | 9.7 | 0.00 | 0.00 | 0.00 | 72 | 1010.0 |
| 20260905200354 | 28 | 297 | 1.6 | 4.8 | 0.00 | 0.00 | 0.00 | 72 | 1009.8 |
| 20260905200205 | 32 | 319 | 1.6 | 4.8 | 0.00 | 0.00 | 0.00 | 56 | 1009.4 |
| 20260905195851 | 28 | 275 | 3.2 | 6.4 | 0.00 | 0.00 | 0.00 | 70 | 1009.5 |
| 20260905195704 | 33 | 334 | 3.2 | 4.8 | 0.00 | 0.00 | 0.00 | 54 | 1009.5 |
| 20260905195341 | 29 | 2 | 4.8 | 6.4 | 0.00 | 0.00 | 0.00 | 70 | 1009.6 |
| 20260905194837 | 30 | 329 | 3.2 | 8.0 | 0.00 | 0.00 | 0.00 | 70 | 1009.6 |
| 20260905194704 | 35 | 338 | 4.8 | 9.7 | 0.00 | 0.00 | 0.00 | 51 | 1009.5 |
| 20260905194337 | 30 | 282 | 4.8 | 17.7 | 0.00 | 0.00 | 0.00 | 68 | 1009.7 |
| 20260905193836 | 31 | 354 | 3.2 | 3.2 | 0.00 | 0.00 | 0.00 | 69 | 1009.3 |
| 20260905193705 | 36 | 309 | 0.0 | 1.6 | 0.00 | 0.00 | 0.00 | 50 | 1009.2 |
| 20260905193331 | 32 | 325 | 0.0 | 3.2 | 0.00 | 0.00 | 0.00 | 65 | 1009.2 |
| 20260905192827 | 32 | 326 | 0.0 | 3.2 | 0.00 | 0.00 | 0.00 | 62 | 1009.0 |
| 20260905192322 | 33 | 343 | 0.0 | 3.2 | 0.00 | 0.00 | 0.00 | 61 | 1008.9 |
| 20260905191821 | 33 | 284 | 0.0 | 1.6 | 0.00 | 0.00 | 0.00 | 59 | 1008.9 |
| 20260905191320 | 34 | 291 | 0.0 | 3.2 | 0.00 | 0.00 | 0.00 | 58 | 1008.7 |
| 20260905191205 | 36 | 352 | 0.0 | 3.2 | 0.00 | 0.00 | 0.00 | 49 | 1008.8 |
| 20260905190819 | 34 | 290 | 0.0 | 1.6 | 0.00 | 0.00 | 0.00 | 56 | 1008.8 |
| 20260905190705 | 36 | 5 | 0.0 | 1.6 | 0.00 | 0.00 | 0.00 | 50 | 1008.8 |
| 20260905190313 | 35 | 284 | 0.0 | 3.2 | 0.00 | 0.00 | 0.00 | 56 | 1008.9 |
| 20260905190204 | 37 | 269 | 1.6 | 1.6 | 0.00 | 0.00 | 0.00 | 49 | 1008.9 |
| 20260905185812 | 35 | 309 | 0.0 | 1.6 | 0.00 | 0.00 | 0.00 | 53 | 1009.0 |
| 20260905185704 | 37 | 283 | 0.0 | 1.6 | 0.00 | 0.00 | 0.00 | 47 | 1009.0 |
| 20260905185307 | 35 | 306 | 3.2 | 4.8 | 0.00 | 0.00 | 0.00 | 54 | 1008.9 |
| 20260905185204 | 37 | 225 | 0.0 | 1.6 | 0.00 | 0.00 | 0.00 | 47 | 1008.9 |
| 20260905184806 | 35 | 285 | 3.2 | 3.2 | 0.00 | 0.00 | 0.00 | 51 | 1009.0 |
| 20260905184705 | 37 | 59 | 3.2 | 4.8 | 0.00 | 0.00 | 0.00 | 43 | 1008.9 |
| 20260905184300 | 36 | 313 | 3.2 | 4.8 | 0.00 | 0.00 | 0.00 | 49 | 1009.0 |
| 20260905184205 | 37 | 253 | 1.6 | 3.2 | 0.00 | 0.00 | 0.00 | 47 | 1009.0 |
| 20260905183759 | 36 | 267 | 4.8 | 4.8 | 0.00 | 0.00 | 0.00 | 46 | 1008.9 |
| 20260905183705 | 37 | 245 | 1.6 | 1.6 | 0.00 | 0.00 | 0.00 | 46 | 1009.1 |
| 20260905183255 | 36 | 181 | 1.6 | 3.2 | 0.00 | 0.00 | 0.00 | 51 | 1009.0 |
| 20260905183204 | 36 | 285 | 0.0 | 3.2 | 0.00 | 0.00 | 0.00 | 46 | 1009.1 |
| 20260905182754 | 36 | 230 | 0.0 | 3.2 | 0.00 | 0.00 | 0.00 | 49 | 1009.1 |
| 20260905182704 | 36 | 286 | 1.6 | 3.2 | 0.00 | 0.00 | 0.00 | 49 | 1009.4 |
| 20260905182253 | 35 | 335 | 3.2 | 3.2 | 0.00 | 0.00 | 0.00 | 53 | 1009.5 |
| 20260905182204 | 36 | 110 | 1.6 | 3.2 | 0.00 | 0.00 | 0.00 | 48 | 1009.6 |
| 20260905181749 | 35 | 313 | 3.2 | 6.4 | 0.00 | 0.00 | 0.00 | 48 | 1009.4 |
| 20260905181704 | 36 | 277 | 1.6 | 1.6 | 0.00 | 0.00 | 0.00 | 49 | 1009.7 |
| 20260905181243 | 35 | 299 | 3.2 | 4.8 | 0.00 | 0.00 | 0.00 | 56 | 1009.6 |
| 20260905180737 | 35 | 271 | 3.2 | 4.8 | 0.00 | 0.00 | 0.00 | 53 | 1009.7 |
| 20260905180705 | 36 | 277 | 1.6 | 3.2 | 0.00 | 0.00 | 0.00 | 50 | 1009.7 |
| 20260905180233 | 35 | 276 | 3.2 | 4.8 | 0.00 | 0.00 | 0.00 | 53 | 1009.7 |
| 20260905175732 | 35 | 295 | 3.2 | 3.2 | 0.00 | 0.00 | 0.00 | 55 | 1010.1 |
| 20260905175227 | 35 | 271 | 3.2 | 4.8 | 0.00 | 0.00 | 0.00 | 52 | 1010.2 |
| 20260905175205 | 37 | 338 | 1.6 | 3.2 | 0.00 | 0.00 | 0.00 | 49 | 1010.0 |
| 20260905174722 | 35 | 274 | 1.6 | 4.8 | 0.00 | 0.00 | 0.00 | 53 | 1010.3 |
| 20260905174218 | 35 | 329 | 0.0 | 4.8 | 0.00 | 0.00 | 0.00 | 55 | 1010.3 |
| 20260905174205 | 37 | 276 | 1.6 | 3.2 | 0.00 | 0.00 | 0.00 | 52 | 1010.4 |
| 20260905173714 | 35 | 266 | 6.4 | 9.7 | 0.00 | 0.00 | 0.00 | 54 | 1010.4 |
| 20260905173704 | 36 | 308 | 1.6 | 4.8 | 0.00 | 0.00 | 0.00 | 50 | 1010.5 |
| 20260905173210 | 35 | 320 | 6.4 | 8.0 | 0.00 | 0.00 | 0.00 | 56 | 1010.7 |
| 20260905172709 | 35 | 267 | 6.4 | 6.4 | 0.00 | 0.00 | 0.00 | 54 | 1010.6 |
| 20260905172704 | 36 | 271 | 0.0 | 1.6 | 0.00 | 0.00 | 0.00 | 52 | 1010.7 |
| 20260905172203 | 35 | 240 | 0.0 | 4.8 | 0.00 | 0.00 | 0.00 | 55 | 1010.8 |
| 20260905171659 | 35 | 298 | 3.2 | 6.4 | 0.00 | 0.00 | 0.00 | 56 | 1010.9 |
| 20260905171204 | 36 | 234 | 1.6 | 4.8 | 0.00 | 0.00 | 0.00 | 53 | 1011.0 |
| 20260905171155 | 35 | 300 | 3.2 | 4.8 | 0.00 | 0.00 | 0.00 | 61 | 1011.2 |
| 20260905170705 | 36 | 310 | 1.6 | 3.2 | 0.00 | 0.00 | 0.00 | 55 | 1011.0 |
| 20260905170652 | 35 | 273 | 4.8 | 6.4 | 0.00 | 0.00 | 0.00 | 56 | 1010.8 |
| 20260905170147 | 35 | 274 | 3.2 | 4.8 | 0.00 | 0.00 | 0.00 | 56 | 1011.0 |
| 20260905165646 | 34 | 299 | 0.0 | 6.4 | 0.00 | 0.00 | 0.00 | 58 | 1011.1 |
| 20260905165141 | 34 | 321 | 3.2 | 6.4 | 0.00 | 0.00 | 0.00 | 57 | 1011.3 |
| 20260905164704 | 35 | 288 | 1.6 | 1.6 | 0.00 | 0.00 | 0.00 | 57 | 1011.1 |
| 20260905164636 | 34 | 280 | 3.2 | 4.8 | 0.00 | 0.00 | 0.00 | 58 | 1011.3 |
| 20260905164205 | 35 | 321 | 1.6 | 3.2 | 0.00 | 0.00 | 0.00 | 54 | 1011.2 |
| 20260905164130 | 34 | 264 | 6.4 | 8.0 | 0.00 | 0.00 | 0.00 | 59 | 1011.4 |
| 20260905163626 | 34 | 287 | 3.2 | 4.8 | 0.00 | 0.00 | 0.00 | 60 | 1011.4 |
| 20260905163123 | 33 | 298 | 3.2 | 4.8 | 0.00 | 0.00 | 0.00 | 60 | 1011.5 |
| 20260905162619 | 33 | 4 | 0.0 | 6.4 | 0.00 | 0.00 | 0.00 | 60 | 1011.5 |
| 20260905162117 | 33 | 312 | 0.0 | 4.8 | 0.00 | 0.00 | 0.00 | 61 | 1011.5 |
| 20260905161612 | 33 | 276 | 3.2 | 6.4 | 0.00 | 0.00 | 0.00 | 61 | 1011.7 |
| 20260905161109 | 33 | 299 | 3.2 | 4.8 | 0.00 | 0.00 | 0.00 | 61 | 1011.5 |
| 20260905160704 | 33 | 336 | 1.6 | 3.2 | 0.00 | 0.00 | 0.00 | 61 | 1011.6 |
| 20260905160608 | 33 | 269 | 3.2 | 4.8 | 0.00 | 0.00 | 0.00 | 63 | 1011.8 |
| 20260905160204 | 33 | 312 | 1.6 | 4.8 | 0.00 | 0.00 | 0.00 | 63 | 1011.7 |
| 20260905155558 | 32 | 236 | 1.6 | 4.8 | 0.00 | 0.00 | 0.00 | 67 | 1011.8 |
| 20260905155057 | 32 | 317 | 0.0 | 6.4 | 0.00 | 0.00 | 0.00 | 66 | 1012.0 |
| 20260905154704 | 32 | 102 | 0.0 | 1.6 | 0.00 | 0.00 | 0.00 | 66 | 1012.0 |
| 20260905154551 | 32 | 294 | 0.0 | 4.8 | 0.00 | 0.00 | 0.00 | 66 | 1012.1 |
| 20260905154204 | 31 | 186 | 1.6 | 4.8 | 0.00 | 0.00 | 0.00 | 68 | 1012.1 |
| 20260905154047 | 32 | 280 | 3.2 | 4.8 | 0.00 | 0.00 | 0.00 | 70 | 1012.2 |
| 20260905153705 | 31 | 191 | 0.0 | 3.2 | 0.00 | 0.00 | 0.00 | 69 | 1012.1 |
| 20260905153543 | 32 | 265 | 3.2 | 4.8 | 0.00 | 0.00 | 0.00 | 69 | 1012.1 |
| 20260905153043 | 31 | 193 | 1.6 | 4.8 | 0.00 | 0.00 | 0.00 | 70 | 1012.2 |
| 20260905152543 | 31 | 279 | 3.2 | 6.4 | 0.00 | 0.00 | 0.00 | 70 | 1012.0 |
| 20260905152038 | 30 | 281 | 4.8 | 6.4 | 0.00 | 0.00 | 0.00 | 72 | 1012.2 |
| 20260905151527 | 30 | 44 | 0.0 | 3.2 | 0.00 | 0.00 | 0.00 | 76 | 1012.4 |
| 20260905151023 | 30 | 0 | 0.0 | 4.8 | 0.00 | 0.00 | 0.00 | 74 | 1012.2 |
| 20260905150518 | 30 | 322 | 0.0 | 4.8 | 0.00 | 0.00 | 0.00 | 75 | 1012.2 |
| 20260905150204 | 29 | 284 | 1.6 | 1.6 | 0.00 | 0.00 | 0.00 | 75 | 1012.5 |
| 20260905150015 | 30 | 275 | 4.8 | 4.8 | 0.00 | 0.00 | 0.00 | 78 | 1012.3 |
| 20260905145704 | 29 | 284 | 1.6 | 3.2 | 0.00 | 0.00 | 0.00 | 75 | 1012.5 |
| 20260905145509 | 29 | 311 | 0.0 | 3.2 | 0.00 | 0.00 | 0.00 | 79 | 1012.3 |
| 20260905145204 | 29 | 256 | 1.6 | 3.2 | 0.00 | 0.00 | 0.00 | 76 | 1012.4 |
| 20260905145008 | 29 | 299 | 0.0 | 1.6 | 0.00 | 0.00 | 0.00 | 80 | 1012.2 |
| 20260905144503 | 29 | 284 | 0.0 | 3.2 | 0.00 | 0.00 | 0.00 | 78 | 1012.3 |
| 20260905144204 | 28 | 277 | 0.0 | 3.2 | 0.00 | 0.00 | 0.00 | 76 | 1012.3 |
| 20260905144002 | 29 | 278 | 1.6 | 4.8 | 0.00 | 0.00 | 0.00 | 79 | 1012.4 |
| 20260905143704 | 28 | 277 | 1.6 | 3.2 | 0.00 | 0.00 | 0.00 | 76 | 1012.3 |
| 20260905143456 | 28 | 296 | 1.6 | 4.8 | 0.00 | 0.00 | 0.00 | 79 | 1012.3 |
| 20260905143205 | 28 | 308 | 1.6 | 4.8 | 0.00 | 0.00 | 0.00 | 76 | 1012.4 |
| 20260905142951 | 28 | 297 | 0.0 | 1.6 | 0.00 | 0.00 | 0.00 | 79 | 1012.3 |
| 20260905142704 | 28 | 296 | 1.6 | 3.2 | 0.00 | 0.00 | 0.00 | 76 | 1012.4 |
| 20260905142450 | 28 | 276 | 4.8 | 6.4 | 0.00 | 0.00 | 0.00 | 81 | 1012.4 |
| 20260905142204 | 28 | 213 | 1.6 | 1.6 | 0.00 | 0.00 | 0.00 | 77 | 1012.5 |
| 20260905141945 | 28 | 310 | 0.0 | 4.8 | 0.00 | 0.00 | 0.00 | 80 | 1012.5 |
| 20260905141704 | 28 | 202 | 3.2 | 4.8 | 0.00 | 0.00 | 0.00 | 76 | 1012.3 |
| 20260905141440 | 28 | 272 | 0.0 | 4.8 | 0.00 | 0.00 | 0.00 | 81 | 1012.4 |
| 20260905140936 | 27 | 207 | 3.2 | 4.8 | 0.00 | 0.00 | 0.00 | 83 | 1012.4 |
| 20260905140705 | 28 | 157 | 1.6 | 4.8 | 0.00 | 0.00 | 0.00 | 77 | 1012.3 |
| 20260905140431 | 27 | 294 | 1.6 | 4.8 | 0.00 | 0.00 | 0.00 | 83 | 1012.2 |
| 20260905140204 | 28 | 192 | 0.0 | 4.8 | 0.00 | 0.00 | 0.00 | 78 | 1012.3 |
| 20260905135930 | 27 | 308 | 3.2 | 4.8 | 0.00 | 0.00 | 0.00 | 84 | 1012.1 |
| 20260905135425 | 27 | 273 | 0.0 | 4.8 | 0.00 | 0.00 | 0.00 | 84 | 1012.1 |
| 20260905135204 | 28 | 263 | 1.6 | 3.2 | 0.00 | 0.00 | 0.00 | 79 | 1012.1 |
| 20260905134921 | 27 | 291 | 1.6 | 4.8 | 0.00 | 0.00 | 0.00 | 85 | 1012.0 |
| 20260905134420 | 27 | 180 | 0.0 | 4.8 | 0.00 | 0.00 | 0.00 | 85 | 1012.1 |
| 20260905133914 | 27 | 306 | 0.0 | 3.2 | 0.00 | 0.00 | 0.00 | 87 | 1012.2 |
| 20260905133409 | 27 | 313 | 1.6 | 4.8 | 0.00 | 0.00 | 0.00 | 87 | 1012.3 |
| 20260905132908 | 26 | 282 | 4.8 | 4.8 | 0.00 | 0.00 | 0.00 | 88 | 1012.3 |
| 20260905132358 | 26 | 308 | 1.6 | 3.2 | 0.00 | 0.00 | 0.00 | 89 | 1012.2 |
| 20260905131858 | 26 | 224 | 0.0 | 4.8 | 0.00 | 0.00 | 0.00 | 89 | 1012.3 |
| 20260905131349 | 26 | 284 | 0.0 | 3.2 | 0.00 | 0.00 | 0.00 | 89 | 1012.2 |
| 20260905131204 | 27 | 296 | 1.6 | 3.2 | 0.00 | 0.00 | 0.00 | 82 | 1012.3 |
| 20260905130843 | 26 | 271 | 1.6 | 4.8 | 0.00 | 0.00 | 0.00 | 89 | 1012.2 |
| 20260905130704 | 27 | 97 | 1.6 | 11.3 | 0.00 | 0.00 | 0.00 | 83 | 1012.4 |
| 20260905130342 | 26 | 241 | 1.6 | 3.2 | 0.00 | 0.00 | 0.00 | 90 | 1012.3 |
| 20260905125837 | 26 | 254 | 4.8 | 4.8 | 0.00 | 0.00 | 0.00 | 91 | 1012.4 |